This is the latest recevied weather packets stored in our database for station/object DH0DM-13. If no packets are shown the sender has not sent any weather packets the latest 10 day(s).
| Time | Temp. | Humidity | Pressure | Rain* | Wind** | Luminosity | Snow |
|---|---|---|---|---|---|---|---|
| 1777561983 | 17.22° C | 35% | 1003 hPa | 0 mm | 2.68 m/s, 6° | - | - |
| 1777561382 | 17.78° C | 34% | 1002.8 hPa | 0 mm | 4.47 m/s, 53° | - | - |
| 1777560781 | 16.67° C | 34% | 1002.9 hPa | 0 mm | 5.36 m/s, 328° | - | - |
| 1777560180 | 17.78° C | 33% | 1002.8 hPa | 0 mm | 4.02 m/s, 331° | - | - |
| 1777559579 | 16.67° C | 34% | 1003.1 hPa | 0 mm | 1.34 m/s, 32° | - | - |
| 1777558979 | 16.67° C | 34% | 1003.2 hPa | 0 mm | 4.92 m/s, 321° | - | - |
| 1777558378 | 17.22° C | 33% | 1003.4 hPa | 0 mm | 2.24 m/s, 273° | - | - |
| 1777557777 | 16.67° C | 35% | 1003.3 hPa | 0 mm | 0.89 m/s, 302° | - | - |
| 1777557176 | 16.67° C | 34% | 1003.5 hPa | 0 mm | 4.92 m/s, 329° | - | - |
| 1777556575 | 17.22° C | 34% | 1003.3 hPa | 0 mm | 3.58 m/s, 319° | - | - |
| 1777555974 | 16.67° C | 35% | 1003.3 hPa | 0 mm | 0.89 m/s, 9° | - | - |
| 1777555373 | 16.67° C | 33% | 1003.7 hPa | 0 mm | 3.13 m/s, 269° | - | - |
| 1777554772 | 15.56° C | 34% | 1003.6 hPa | 0 mm | 2.68 m/s, 308° | - | - |
| 1777554172 | 16.67° C | 33% | 1003.5 hPa | 0 mm | 2.68 m/s, 73° | - | - |
| 1777553571 | 16.67° C | 32% | 1003.6 hPa | 0 mm | 3.13 m/s, 337° | - | - |
| 1777552970 | 16.67° C | 32% | 1003.8 hPa | 0 mm | 0 m/s | - | - |
| 1777552369 | 16.67° C | 33% | 1003.9 hPa | 0 mm | 7.15 m/s, 336° | - | - |
| 1777551768 | 16.11° C | 33% | 1004 hPa | 0 mm | 2.24 m/s, 128° | - | - |
| 1777551167 | 15.56° C | 33% | 1004.2 hPa | 0 mm | 4.02 m/s, 354° | - | - |
| 1777550566 | 15.56° C | 33% | 1004.2 hPa | 0 mm | 8.49 m/s, 265° | - | - |
| 1777549965 | 15.56° C | 31% | 1004.3 hPa | 0 mm | 0.89 m/s, 1° | - | - |
| 1777549365 | 15.56° C | 33% | 1004.3 hPa | 0 mm | 2.68 m/s, 358° | - | - |
| 1777548764 | 14.44° C | 33% | 1004.5 hPa | 0 mm | 1.79 m/s, 323° | - | - |
| 1777548163 | 15° C | 32% | 1004.4 hPa | 0 mm | 0.89 m/s, 5° | - | - |
| 1777547562 | 15° C | 34% | 1004.3 hPa | 0 mm | 5.36 m/s, 205° | - | - |
* Rain since midnight (hover to see other rain measurements)
** Current wind speed in m/s (hover to see current wind gust speed)